Terminal Aerodrome Forecast
Issued by NWS Paducah, KY

Home | Current Version | Previous Version | Text Only | Print | Product List | Glossary On
Versions: 1 2 3 4 5 6 7 8 9 10 11 12 13 14 15 16 17
000
FTUS43 KPAH 231700
TAFPAH
TAF
KPAH 231720Z 2318/2418 14012KT 3SM -RA BR OVC005
      TEMPO 2318/2322 1SM SHRA BR OVC003
     FM240000 19013G23KT P6SM OVC010
     FM240900 22020G30KT P6SM OVC010
     FM241500 26020G30KT P6SM OVC015=

USA.gov is the U.S. government's official web portal to all federal, state and local government web resources and services.